sensor_id;sensor_type;location;lat;lon;timestamp;temperature;humidity
74087;SHT30;62445;48.406;-4.518;2023-05-29T00:02:01;23.61;49.76
74087;SHT30;62445;48.406;-4.518;2023-05-29T00:04:26;23.61;49.71
74087;SHT30;62445;48.406;-4.518;2023-05-29T00:06:52;23.63;49.70
74087;SHT30;62445;48.406;-4.518;2023-05-29T00:09:17;23.63;49.72
74087;SHT30;62445;48.406;-4.518;2023-05-29T00:11:43;23.60;49.70
74087;SHT30;62445;48.406;-4.518;2023-05-29T00:14:08;23.61;49.74
74087;SHT30;62445;48.406;-4.518;2023-05-29T00:16:39;23.60;49.73
74087;SHT30;62445;48.406;-4.518;2023-05-29T00:19:04;23.59;49.76
74087;SHT30;62445;48.406;-4.518;2023-05-29T00:21:30;23.61;49.66
74087;SHT30;62445;48.406;-4.518;2023-05-29T00:23:55;23.61;49.65
74087;SHT30;62445;48.406;-4.518;2023-05-29T00:26:21;23.63;49.72
74087;SHT30;62445;48.406;-4.518;2023-05-29T00:28:47;23.59;49.73
74087;SHT30;62445;48.406;-4.518;2023-05-29T00:31:12;23.59;49.72
74087;SHT30;62445;48.406;-4.518;2023-05-29T00:33:37;23.60;49.74
74087;SHT30;62445;48.406;-4.518;2023-05-29T00:36:03;23.59;49.76
74087;SHT30;62445;48.406;-4.518;2023-05-29T00:38:28;23.59;49.75
74087;SHT30;62445;48.406;-4.518;2023-05-29T00:40:54;23.59;49.76
74087;SHT30;62445;48.406;-4.518;2023-05-29T00:43:19;23.60;49.78
74087;SHT30;62445;48.406;-4.518;2023-05-29T00:45:45;23.57;49.76
74087;SHT30;62445;48.406;-4.518;2023-05-29T00:48:10;23.60;49.82
74087;SHT30;62445;48.406;-4.518;2023-05-29T00:50:36;23.57;49.82
74087;SHT30;62445;48.406;-4.518;2023-05-29T00:53:02;23.60;49.83
74087;SHT30;62445;48.406;-4.518;2023-05-29T00:55:30;23.57;49.82
74087;SHT30;62445;48.406;-4.518;2023-05-29T00:57:55;23.59;49.80
74087;SHT30;62445;48.406;-4.518;2023-05-29T01:00:21;23.57;49.76
74087;SHT30;62445;48.406;-4.518;2023-05-29T01:02:47;23.59;49.77
74087;SHT30;62445;48.406;-4.518;2023-05-29T01:05:14;23.59;49.74
74087;SHT30;62445;48.406;-4.518;2023-05-29T01:07:43;23.57;49.72
74087;SHT30;62445;48.406;-4.518;2023-05-29T01:10:09;23.57;49.75
74087;SHT30;62445;48.406;-4.518;2023-05-29T01:20:27;23.53;49.77
74087;SHT30;62445;48.406;-4.518;2023-05-29T01:28:13;23.57;49.57
74087;SHT30;62445;48.406;-4.518;2023-05-29T01:30:41;23.54;49.58
74087;SHT30;62445;48.406;-4.518;2023-05-29T01:33:08;23.56;49.65
74087;SHT30;62445;48.406;-4.518;2023-05-29T01:35:34;23.56;49.59
74087;SHT30;62445;48.406;-4.518;2023-05-29T01:38:00;23.54;49.61
74087;SHT30;62445;48.406;-4.518;2023-05-29T01:40:26;23.53;49.56
74087;SHT30;62445;48.406;-4.518;2023-05-29T01:42:52;23.54;49.58
74087;SHT30;62445;48.406;-4.518;2023-05-29T01:45:17;23.54;49.56
74087;SHT30;62445;48.406;-4.518;2023-05-29T01:47:43;23.54;49.53
74087;SHT30;62445;48.406;-4.518;2023-05-29T01:50:09;23.53;49.46
74087;SHT30;62445;48.406;-4.518;2023-05-29T01:52:36;23.52;49.49
74087;SHT30;62445;48.406;-4.518;2023-05-29T01:55:01;23.54;49.50
74087;SHT30;62445;48.406;-4.518;2023-05-29T01:57:27;23.53;49.47
74087;SHT30;62445;48.406;-4.518;2023-05-29T01:59:54;23.56;49.45
74087;SHT30;62445;48.406;-4.518;2023-05-29T02:02:21;23.53;49.47
74087;SHT30;62445;48.406;-4.518;2023-05-29T02:04:48;23.54;49.49
74087;SHT30;62445;48.406;-4.518;2023-05-29T02:07:13;23.53;49.49
74087;SHT30;62445;48.406;-4.518;2023-05-29T02:09:41;23.53;49.40
74087;SHT30;62445;48.406;-4.518;2023-05-29T02:12:06;23.54;49.47
74087;SHT30;62445;48.406;-4.518;2023-05-29T02:14:33;23.52;49.40
74087;SHT30;62445;48.406;-4.518;2023-05-29T02:16:58;23.50;49.33
74087;SHT30;62445;48.406;-4.518;2023-05-29T02:19:24;23.53;49.35
74087;SHT30;62445;48.406;-4.518;2023-05-29T02:21:50;23.50;49.33
74087;SHT30;62445;48.406;-4.518;2023-05-29T02:24:16;23.53;49.39
74087;SHT30;62445;48.406;-4.518;2023-05-29T02:26:41;23.53;49.32
74087;SHT30;62445;48.406;-4.518;2023-05-29T02:29:07;23.49;49.27
74087;SHT30;62445;48.406;-4.518;2023-05-29T02:31:33;23.50;49.34
74087;SHT30;62445;48.406;-4.518;2023-05-29T02:33:58;23.52;49.23
74087;SHT30;62445;48.406;-4.518;2023-05-29T02:36:24;23.50;49.31
74087;SHT30;62445;48.406;-4.518;2023-05-29T02:38:49;23.52;49.27
74087;SHT30;62445;48.406;-4.518;2023-05-29T02:41:15;23.50;49.17
74087;SHT30;62445;48.406;-4.518;2023-05-29T02:43:40;23.52;49.12
74087;SHT30;62445;48.406;-4.518;2023-05-29T02:46:05;23.52;49.14
74087;SHT30;62445;48.406;-4.518;2023-05-29T02:48:31;23.49;49.13
74087;SHT30;62445;48.406;-4.518;2023-05-29T02:50:56;23.47;49.15
74087;SHT30;62445;48.406;-4.518;2023-05-29T02:53:22;23.47;49.08
74087;SHT30;62445;48.406;-4.518;2023-05-29T02:55:48;23.47;49.12
74087;SHT30;62445;48.406;-4.518;2023-05-29T02:58:13;23.47;49.12
74087;SHT30;62445;48.406;-4.518;2023-05-29T03:00:41;23.46;49.13
74087;SHT30;62445;48.406;-4.518;2023-05-29T03:03:06;23.46;49.08
74087;SHT30;62445;48.406;-4.518;2023-05-29T03:05:32;23.47;49.10
74087;SHT30;62445;48.406;-4.518;2023-05-29T03:07:57;23.49;49.09
74087;SHT30;62445;48.406;-4.518;2023-05-29T03:10:23;23.47;49.08
74087;SHT30;62445;48.406;-4.518;2023-05-29T03:12:48;23.46;49.09
74087;SHT30;62445;48.406;-4.518;2023-05-29T03:15:13;23.47;49.03
74087;SHT30;62445;48.406;-4.518;2023-05-29T03:17:39;23.45;49.06
74087;SHT30;62445;48.406;-4.518;2023-05-29T03:20:05;23.47;49.12
74087;SHT30;62445;48.406;-4.518;2023-05-29T03:22:32;23.45;49.09
74087;SHT30;62445;48.406;-4.518;2023-05-29T03:24:57;23.46;49.09
74087;SHT30;62445;48.406;-4.518;2023-05-29T03:27:23;23.43;49.10
74087;SHT30;62445;48.406;-4.518;2023-05-29T03:29:48;23.42;49.09
74087;SHT30;62445;48.406;-4.518;2023-05-29T03:32:13;23.42;49.09
74087;SHT30;62445;48.406;-4.518;2023-05-29T03:34:39;23.43;49.09
74087;SHT30;62445;48.406;-4.518;2023-05-29T03:37:05;23.46;49.06
74087;SHT30;62445;48.406;-4.518;2023-05-29T03:39:30;23.43;49.04
74087;SHT30;62445;48.406;-4.518;2023-05-29T03:41:56;23.45;49.14
74087;SHT30;62445;48.406;-4.518;2023-05-29T03:44:21;23.43;49.12
74087;SHT30;62445;48.406;-4.518;2023-05-29T03:46:46;23.43;49.16
74087;SHT30;62445;48.406;-4.518;2023-05-29T03:49:12;23.42;49.12
74087;SHT30;62445;48.406;-4.518;2023-05-29T03:51:37;23.45;49.11
74087;SHT30;62445;48.406;-4.518;2023-05-29T03:54:03;23.42;49.11
74087;SHT30;62445;48.406;-4.518;2023-05-29T03:56:29;23.42;49.12
74087;SHT30;62445;48.406;-4.518;2023-05-29T03:58:55;23.43;49.16
74087;SHT30;62445;48.406;-4.518;2023-05-29T04:01:21;23.40;49.17
74087;SHT30;62445;48.406;-4.518;2023-05-29T04:03:46;23.43;49.13
74087;SHT30;62445;48.406;-4.518;2023-05-29T04:06:11;23.40;49.15
74087;SHT30;62445;48.406;-4.518;2023-05-29T04:08:38;23.40;49.12
74087;SHT30;62445;48.406;-4.518;2023-05-29T04:11:03;23.40;49.17
74087;SHT30;62445;48.406;-4.518;2023-05-29T04:13:29;23.39;49.15
74087;SHT30;62445;48.406;-4.518;2023-05-29T04:15:54;23.42;49.16
74087;SHT30;62445;48.406;-4.518;2023-05-29T04:18:20;23.42;49.21
74087;SHT30;62445;48.406;-4.518;2023-05-29T04:20:46;23.39;49.17
74087;SHT30;62445;48.406;-4.518;2023-05-29T04:23:12;23.40;49.18
74087;SHT30;62445;48.406;-4.518;2023-05-29T04:25:38;23.38;49.22
74087;SHT30;62445;48.406;-4.518;2023-05-29T04:28:03;23.39;49.15
74087;SHT30;62445;48.406;-4.518;2023-05-29T04:30:29;23.39;49.18
74087;SHT30;62445;48.406;-4.518;2023-05-29T04:32:55;23.36;49.20
74087;SHT30;62445;48.406;-4.518;2023-05-29T04:35:20;23.38;49.28
74087;SHT30;62445;48.406;-4.518;2023-05-29T04:37:47;23.38;49.22
74087;SHT30;62445;48.406;-4.518;2023-05-29T04:40:12;23.39;49.29
74087;SHT30;62445;48.406;-4.518;2023-05-29T04:42:43;23.36;49.28
74087;SHT30;62445;48.406;-4.518;2023-05-29T04:45:10;23.34;49.26
74087;SHT30;62445;48.406;-4.518;2023-05-29T04:47:36;23.34;49.27
74087;SHT30;62445;48.406;-4.518;2023-05-29T04:50:11;23.34;49.25
74087;SHT30;62445;48.406;-4.518;2023-05-29T04:52:37;23.36;49.29
74087;SHT30;62445;48.406;-4.518;2023-05-29T04:55:03;23.36;49.26
74087;SHT30;62445;48.406;-4.518;2023-05-29T04:57:29;23.38;49.30
74087;SHT30;62445;48.406;-4.518;2023-05-29T04:59:54;23.38;49.27
74087;SHT30;62445;48.406;-4.518;2023-05-29T05:02:19;23.36;49.30
74087;SHT30;62445;48.406;-4.518;2023-05-29T05:04:45;23.36;49.27
74087;SHT30;62445;48.406;-4.518;2023-05-29T05:07:11;23.39;49.29
74087;SHT30;62445;48.406;-4.518;2023-05-29T05:09:36;23.36;49.31
74087;SHT30;62445;48.406;-4.518;2023-05-29T05:12:02;23.34;49.25
74087;SHT30;62445;48.406;-4.518;2023-05-29T05:14:27;23.36;49.29
74087;SHT30;62445;48.406;-4.518;2023-05-29T05:16:53;23.34;49.27
74087;SHT30;62445;48.406;-4.518;2023-05-29T05:19:18;23.36;49.29
74087;SHT30;62445;48.406;-4.518;2023-05-29T05:21:44;23.34;49.32
74087;SHT30;62445;48.406;-4.518;2023-05-29T05:24:09;23.33;49.32
74087;SHT30;62445;48.406;-4.518;2023-05-29T05:26:35;23.32;49.30
74087;SHT30;62445;48.406;-4.518;2023-05-29T05:29:00;23.36;49.31
74087;SHT30;62445;48.406;-4.518;2023-05-29T05:31:26;23.36;49.28
74087;SHT30;62445;48.406;-4.518;2023-05-29T05:33:51;23.33;49.35
74087;SHT30;62445;48.406;-4.518;2023-05-29T05:36:17;23.33;49.35
74087;SHT30;62445;48.406;-4.518;2023-05-29T05:38:42;23.32;49.29
74087;SHT30;62445;48.406;-4.518;2023-05-29T05:41:08;23.33;49.36
74087;SHT30;62445;48.406;-4.518;2023-05-29T05:43:33;23.32;49.35
74087;SHT30;62445;48.406;-4.518;2023-05-29T05:45:59;23.33;49.41
74087;SHT30;62445;48.406;-4.518;2023-05-29T05:48:24;23.33;49.36
74087;SHT30;62445;48.406;-4.518;2023-05-29T05:50:50;23.32;49.36
74087;SHT30;62445;48.406;-4.518;2023-05-29T05:53:15;23.30;49.41
74087;SHT30;62445;48.406;-4.518;2023-05-29T05:55:42;23.33;49.40
74087;SHT30;62445;48.406;-4.518;2023-05-29T05:58:07;23.32;49.41
74087;SHT30;62445;48.406;-4.518;2023-05-29T06:00:32;23.33;49.41
74087;SHT30;62445;48.406;-4.518;2023-05-29T06:02:58;23.32;49.44
74087;SHT30;62445;48.406;-4.518;2023-05-29T06:05:24;23.32;49.44
74087;SHT30;62445;48.406;-4.518;2023-05-29T06:07:50;23.32;49.43
74087;SHT30;62445;48.406;-4.518;2023-05-29T06:10:15;23.32;49.42
74087;SHT30;62445;48.406;-4.518;2023-05-29T06:12:41;23.30;49.39
74087;SHT30;62445;48.406;-4.518;2023-05-29T06:15:06;23.32;49.45
74087;SHT30;62445;48.406;-4.518;2023-05-29T06:17:32;23.29;49.44
74087;SHT30;62445;48.406;-4.518;2023-05-29T06:19:57;23.34;49.47
74087;SHT30;62445;48.406;-4.518;2023-05-29T06:22:23;23.32;49.42
74087;SHT30;62445;48.406;-4.518;2023-05-29T06:24:48;23.29;49.41
74087;SHT30;62445;48.406;-4.518;2023-05-29T06:27:13;23.32;49.47
74087;SHT30;62445;48.406;-4.518;2023-05-29T06:29:39;23.30;49.40
74087;SHT30;62445;48.406;-4.518;2023-05-29T06:32:05;23.32;49.40
74087;SHT30;62445;48.406;-4.518;2023-05-29T06:34:30;23.32;49.42
74087;SHT30;62445;48.406;-4.518;2023-05-29T06:36:56;23.32;49.43
74087;SHT30;62445;48.406;-4.518;2023-05-29T06:39:21;23.29;49.45
74087;SHT30;62445;48.406;-4.518;2023-05-29T06:41:47;23.32;49.41
74087;SHT30;62445;48.406;-4.518;2023-05-29T06:44:12;23.29;49.43
74087;SHT30;62445;48.406;-4.518;2023-05-29T06:46:39;23.32;49.45
74087;SHT30;62445;48.406;-4.518;2023-05-29T06:49:04;23.32;49.46
74087;SHT30;62445;48.406;-4.518;2023-05-29T06:51:30;23.27;49.43
74087;SHT30;62445;48.406;-4.518;2023-05-29T06:53:57;23.29;49.44
74087;SHT30;62445;48.406;-4.518;2023-05-29T06:56:23;23.30;49.45
74087;SHT30;62445;48.406;-4.518;2023-05-29T06:58:48;23.32;49.44
74087;SHT30;62445;48.406;-4.518;2023-05-29T07:01:13;23.29;49.41
74087;SHT30;62445;48.406;-4.518;2023-05-29T07:03:40;23.29;49.41
74087;SHT30;62445;48.406;-4.518;2023-05-29T07:06:05;23.27;49.41
74087;SHT30;62445;48.406;-4.518;2023-05-29T07:08:31;23.29;49.46
74087;SHT30;62445;48.406;-4.518;2023-05-29T07:10:57;23.27;49.46
74087;SHT30;62445;48.406;-4.518;2023-05-29T07:13:24;23.30;49.43
74087;SHT30;62445;48.406;-4.518;2023-05-29T07:15:50;23.30;49.39
74087;SHT30;62445;48.406;-4.518;2023-05-29T07:18:15;23.27;49.42
74087;SHT30;62445;48.406;-4.518;2023-05-29T07:20:41;23.32;49.35
74087;SHT30;62445;48.406;-4.518;2023-05-29T07:23:06;23.27;49.34
74087;SHT30;62445;48.406;-4.518;2023-05-29T07:25:32;23.27;49.31
74087;SHT30;62445;48.406;-4.518;2023-05-29T07:27:57;23.29;49.34
74087;SHT30;62445;48.406;-4.518;2023-05-29T07:30:23;23.29;49.32
74087;SHT30;62445;48.406;-4.518;2023-05-29T07:32:49;23.29;49.33
74087;SHT30;62445;48.406;-4.518;2023-05-29T07:35:14;23.30;49.29
74087;SHT30;62445;48.406;-4.518;2023-05-29T07:37:40;23.30;49.30
74087;SHT30;62445;48.406;-4.518;2023-05-29T07:40:06;23.27;49.30
74087;SHT30;62445;48.406;-4.518;2023-05-29T07:42:33;23.29;49.29
74087;SHT30;62445;48.406;-4.518;2023-05-29T07:44:58;23.29;49.30
74087;SHT30;62445;48.406;-4.518;2023-05-29T07:47:24;23.32;49.34
74087;SHT30;62445;48.406;-4.518;2023-05-29T07:49:50;23.29;49.29
74087;SHT30;62445;48.406;-4.518;2023-05-29T07:52:15;23.29;49.34
74087;SHT30;62445;48.406;-4.518;2023-05-29T07:54:41;23.30;49.31
74087;SHT30;62445;48.406;-4.518;2023-05-29T07:57:06;23.30;49.33
74087;SHT30;62445;48.406;-4.518;2023-05-29T07:59:39;23.29;49.30
74087;SHT30;62445;48.406;-4.518;2023-05-29T08:02:05;23.27;49.30
74087;SHT30;62445;48.406;-4.518;2023-05-29T08:04:31;23.27;49.24
74087;SHT30;62445;48.406;-4.518;2023-05-29T08:06:58;23.30;49.27
74087;SHT30;62445;48.406;-4.518;2023-05-29T08:09:23;23.29;49.32
74087;SHT30;62445;48.406;-4.518;2023-05-29T08:11:49;23.27;49.38
74087;SHT30;62445;48.406;-4.518;2023-05-29T08:14:14;23.32;49.31
74087;SHT30;62445;48.406;-4.518;2023-05-29T08:16:43;23.29;49.41
74087;SHT30;62445;48.406;-4.518;2023-05-29T08:19:08;23.32;49.34
74087;SHT30;62445;48.406;-4.518;2023-05-29T08:21:34;23.30;49.35
74087;SHT30;62445;48.406;-4.518;2023-05-29T08:23:59;23.29;49.36
74087;SHT30;62445;48.406;-4.518;2023-05-29T08:26:26;23.33;49.37
74087;SHT30;62445;48.406;-4.518;2023-05-29T08:28:51;23.29;49.35
74087;SHT30;62445;48.406;-4.518;2023-05-29T08:31:17;23.32;49.30
74087;SHT30;62445;48.406;-4.518;2023-05-29T08:33:42;23.30;49.26
74087;SHT30;62445;48.406;-4.518;2023-05-29T08:36:08;23.32;49.35
74087;SHT30;62445;48.406;-4.518;2023-05-29T08:38:34;23.30;49.29
74087;SHT30;62445;48.406;-4.518;2023-05-29T08:41:00;23.30;49.34
74087;SHT30;62445;48.406;-4.518;2023-05-29T08:43:30;23.30;49.30
74087;SHT30;62445;48.406;-4.518;2023-05-29T08:45:59;23.30;49.36
74087;SHT30;62445;48.406;-4.518;2023-05-29T08:48:27;23.32;49.34
74087;SHT30;62445;48.406;-4.518;2023-05-29T08:50:54;23.32;49.31
74087;SHT30;62445;48.406;-4.518;2023-05-29T08:53:21;23.30;49.34
74087;SHT30;62445;48.406;-4.518;2023-05-29T08:55:47;23.30;49.36
74087;SHT30;62445;48.406;-4.518;2023-05-29T08:58:13;23.30;49.37
74087;SHT30;62445;48.406;-4.518;2023-05-29T09:00:39;23.29;49.34
74087;SHT30;62445;48.406;-4.518;2023-05-29T09:03:07;23.30;49.36
74087;SHT30;62445;48.406;-4.518;2023-05-29T09:05:32;23.32;49.36
74087;SHT30;62445;48.406;-4.518;2023-05-29T09:07:59;23.32;49.36
74087;SHT30;62445;48.406;-4.518;2023-05-29T09:10:24;23.29;49.36
74087;SHT30;62445;48.406;-4.518;2023-05-29T09:12:52;23.29;49.34
74087;SHT30;62445;48.406;-4.518;2023-05-29T09:15:19;23.30;49.37
74087;SHT30;62445;48.406;-4.518;2023-05-29T09:17:56;23.30;49.31
74087;SHT30;62445;48.406;-4.518;2023-05-29T09:20:23;23.30;49.44
74087;SHT30;62445;48.406;-4.518;2023-05-29T09:23:02;23.32;49.40
74087;SHT30;62445;48.406;-4.518;2023-05-29T09:25:31;23.30;49.40
74087;SHT30;62445;48.406;-4.518;2023-05-29T09:30:45;23.32;49.36
74087;SHT30;62445;48.406;-4.518;2023-05-29T09:33:13;23.33;49.64
74087;SHT30;62445;48.406;-4.518;2023-05-29T09:35:43;23.39;49.60
74087;SHT30;62445;48.406;-4.518;2023-05-29T09:38:11;23.42;49.51
74087;SHT30;62445;48.406;-4.518;2023-05-29T09:40:39;23.43;49.24
74087;SHT30;62445;48.406;-4.518;2023-05-29T09:45:41;23.45;49.10
74087;SHT30;62445;48.406;-4.518;2023-05-29T09:48:10;23.47;49.09
74087;SHT30;62445;48.406;-4.518;2023-05-29T09:50:37;23.46;48.84
74087;SHT30;62445;48.406;-4.518;2023-05-29T09:53:02;23.47;48.88
74087;SHT30;62445;48.406;-4.518;2023-05-29T09:55:30;23.46;48.95
74087;SHT30;62445;48.406;-4.518;2023-05-29T09:57:57;23.47;48.95
74087;SHT30;62445;48.406;-4.518;2023-05-29T10:00:24;23.47;49.00
74087;SHT30;62445;48.406;-4.518;2023-05-29T10:02:49;23.49;49.03
74087;SHT30;62445;48.406;-4.518;2023-05-29T10:05:15;23.52;49.08
74087;SHT30;62445;48.406;-4.518;2023-05-29T10:07:44;23.52;49.02
74087;SHT30;62445;48.406;-4.518;2023-05-29T10:10:14;23.50;48.93
74087;SHT30;62445;48.406;-4.518;2023-05-29T10:12:48;23.53;48.91
74087;SHT30;62445;48.406;-4.518;2023-05-29T10:15:15;23.50;48.95
74087;SHT30;62445;48.406;-4.518;2023-05-29T10:17:49;23.52;48.88
74087;SHT30;62445;48.406;-4.518;2023-05-29T10:20:17;23.52;48.91
74087;SHT30;62445;48.406;-4.518;2023-05-29T10:22:46;23.53;48.95
74087;SHT30;62445;48.406;-4.518;2023-05-29T10:25:13;23.54;48.89
74087;SHT30;62445;48.406;-4.518;2023-05-29T10:27:41;23.54;48.93
74087;SHT30;62445;48.406;-4.518;2023-05-29T10:37:40;23.59;48.93
74087;SHT30;62445;48.406;-4.518;2023-05-29T10:40:10;23.61;48.95
74087;SHT30;62445;48.406;-4.518;2023-05-29T10:42:49;23.59;48.84
74087;SHT30;62445;48.406;-4.518;2023-05-29T10:50:48;23.60;48.63
74087;SHT30;62445;48.406;-4.518;2023-05-29T10:53:17;23.61;48.65
74087;SHT30;62445;48.406;-4.518;2023-05-29T10:55:45;23.63;48.71
74087;SHT30;62445;48.406;-4.518;2023-05-29T10:58:21;23.64;48.71
74087;SHT30;62445;48.406;-4.518;2023-05-29T11:00:49;23.66;48.61
74087;SHT30;62445;48.406;-4.518;2023-05-29T11:03:15;23.64;48.58
74087;SHT30;62445;48.406;-4.518;2023-05-29T11:06:00;23.69;48.68
74087;SHT30;62445;48.406;-4.518;2023-05-29T11:08:43;23.67;48.76
74087;SHT30;62445;48.406;-4.518;2023-05-29T11:11:33;23.69;48.76
74087;SHT30;62445;48.406;-4.518;2023-05-29T11:14:03;23.66;48.78
74087;SHT30;62445;48.406;-4.518;2023-05-29T11:18:55;23.71;48.63
74087;SHT30;62445;48.406;-4.518;2023-05-29T11:24:00;23.75;48.58
74087;SHT30;62445;48.406;-4.518;2023-05-29T11:26:29;23.73;48.55
74087;SHT30;62445;48.406;-4.518;2023-05-29T11:29:13;23.74;48.59
74087;SHT30;62445;48.406;-4.518;2023-05-29T11:31:40;23.75;48.76
74087;SHT30;62445;48.406;-4.518;2023-05-29T11:34:09;23.74;48.72
74087;SHT30;62445;48.406;-4.518;2023-05-29T11:36:36;23.75;48.83
74087;SHT30;62445;48.406;-4.518;2023-05-29T11:39:02;23.80;48.96
74087;SHT30;62445;48.406;-4.518;2023-05-29T11:41:29;23.80;49.00
74087;SHT30;62445;48.406;-4.518;2023-05-29T11:44:02;23.84;49.19
74087;SHT30;62445;48.406;-4.518;2023-05-29T11:46:29;23.85;49.61
74087;SHT30;62445;48.406;-4.518;2023-05-29T11:48:58;23.87;49.97
74087;SHT30;62445;48.406;-4.518;2023-05-29T11:51:25;23.90;50.02
74087;SHT30;62445;48.406;-4.518;2023-05-29T11:53:50;23.90;50.32
74087;SHT30;62445;48.406;-4.518;2023-05-29T11:56:18;23.93;50.12
74087;SHT30;62445;48.406;-4.518;2023-05-29T11:58:44;23.96;49.81
74087;SHT30;62445;48.406;-4.518;2023-05-29T12:01:10;23.94;49.74
74087;SHT30;62445;48.406;-4.518;2023-05-29T12:03:42;24.00;49.58
74087;SHT30;62445;48.406;-4.518;2023-05-29T12:06:09;23.96;49.31
74087;SHT30;62445;48.406;-4.518;2023-05-29T12:08:36;23.98;49.38
74087;SHT30;62445;48.406;-4.518;2023-05-29T12:11:01;23.97;49.38
74087;SHT30;62445;48.406;-4.518;2023-05-29T12:13:27;24.00;49.63
74087;SHT30;62445;48.406;-4.518;2023-05-29T12:15:57;24.01;49.83
74087;SHT30;62445;48.406;-4.518;2023-05-29T12:18:24;24.02;49.85
74087;SHT30;62445;48.406;-4.518;2023-05-29T12:20:50;24.02;50.05
74087;SHT30;62445;48.406;-4.518;2023-05-29T12:23:17;24.05;50.09
74087;SHT30;62445;48.406;-4.518;2023-05-29T12:25:46;24.05;49.99
74087;SHT30;62445;48.406;-4.518;2023-05-29T12:28:16;24.11;50.11
74087;SHT30;62445;48.406;-4.518;2023-05-29T12:30:42;24.17;51.40
74087;SHT30;62445;48.406;-4.518;2023-05-29T12:33:09;24.25;50.08
74087;SHT30;62445;48.406;-4.518;2023-05-29T12:35:34;24.29;50.21
74087;SHT30;62445;48.406;-4.518;2023-05-29T12:38:02;24.28;50.30
74087;SHT30;62445;48.406;-4.518;2023-05-29T12:40:31;24.32;50.34
74087;SHT30;62445;48.406;-4.518;2023-05-29T12:42:59;24.33;50.22
74087;SHT30;62445;48.406;-4.518;2023-05-29T12:45:30;24.33;50.27
74087;SHT30;62445;48.406;-4.518;2023-05-29T12:48:00;24.36;50.29
74087;SHT30;62445;48.406;-4.518;2023-05-29T12:53:09;24.38;49.95
74087;SHT30;62445;48.406;-4.518;2023-05-29T12:55:37;24.36;50.10
74087;SHT30;62445;48.406;-4.518;2023-05-29T12:58:06;24.40;50.05
74087;SHT30;62445;48.406;-4.518;2023-05-29T13:00:37;24.40;50.31
74087;SHT30;62445;48.406;-4.518;2023-05-29T13:03:04;24.40;50.10
74087;SHT30;62445;48.406;-4.518;2023-05-29T13:05:29;24.43;50.26
74087;SHT30;62445;48.406;-4.518;2023-05-29T13:07:55;24.45;50.35
74087;SHT30;62445;48.406;-4.518;2023-05-29T13:10:20;24.46;50.43
74087;SHT30;62445;48.406;-4.518;2023-05-29T13:12:48;24.48;50.41
74087;SHT30;62445;48.406;-4.518;2023-05-29T13:15:15;24.51;49.96
74087;SHT30;62445;48.406;-4.518;2023-05-29T13:17:41;24.51;50.04
74087;SHT30;62445;48.406;-4.518;2023-05-29T13:20:08;24.51;50.05
74087;SHT30;62445;48.406;-4.518;2023-05-29T13:22:35;24.52;49.81
74087;SHT30;62445;48.406;-4.518;2023-05-29T13:25:01;24.53;50.02
74087;SHT30;62445;48.406;-4.518;2023-05-29T13:27:26;24.56;50.09
74087;SHT30;62445;48.406;-4.518;2023-05-29T13:29:53;24.56;49.73
74087;SHT30;62445;48.406;-4.518;2023-05-29T13:32:19;24.59;49.81
74087;SHT30;62445;48.406;-4.518;2023-05-29T13:34:45;24.60;49.90
74087;SHT30;62445;48.406;-4.518;2023-05-29T13:37:10;24.65;49.66
74087;SHT30;62445;48.406;-4.518;2023-05-29T13:39:36;24.66;49.63
74087;SHT30;62445;48.406;-4.518;2023-05-29T13:42:01;24.66;49.78
74087;SHT30;62445;48.406;-4.518;2023-05-29T13:44:27;24.70;49.73
74087;SHT30;62445;48.406;-4.518;2023-05-29T13:46:52;24.76;49.76
74087;SHT30;62445;48.406;-4.518;2023-05-29T13:49:18;24.76;49.49
74087;SHT30;62445;48.406;-4.518;2023-05-29T13:51:44;24.77;49.71
74087;SHT30;62445;48.406;-4.518;2023-05-29T13:54:12;24.83;49.70
74087;SHT30;62445;48.406;-4.518;2023-05-29T13:56:37;24.83;49.84
74087;SHT30;62445;48.406;-4.518;2023-05-29T13:59:03;24.88;49.86
74087;SHT30;62445;48.406;-4.518;2023-05-29T14:01:31;24.91;50.00
74087;SHT30;62445;48.406;-4.518;2023-05-29T14:03:57;24.97;50.03
74087;SHT30;62445;48.406;-4.518;2023-05-29T14:06:22;24.95;49.93
74087;SHT30;62445;48.406;-4.518;2023-05-29T14:08:48;25.00;49.84
74087;SHT30;62445;48.406;-4.518;2023-05-29T14:11:13;25.00;49.79
74087;SHT30;62445;48.406;-4.518;2023-05-29T14:13:38;25.06;49.75
74087;SHT30;62445;48.406;-4.518;2023-05-29T14:16:04;25.07;49.62
74087;SHT30;62445;48.406;-4.518;2023-05-29T14:18:30;25.13;49.53
74087;SHT30;62445;48.406;-4.518;2023-05-29T14:20:55;25.17;49.43
74087;SHT30;62445;48.406;-4.518;2023-05-29T14:23:20;25.20;49.38
74087;SHT30;62445;48.406;-4.518;2023-05-29T14:25:46;25.21;49.19
74087;SHT30;62445;48.406;-4.518;2023-05-29T14:28:11;25.25;49.00
74087;SHT30;62445;48.406;-4.518;2023-05-29T14:30:37;25.27;48.82
74087;SHT30;62445;48.406;-4.518;2023-05-29T14:33:03;25.30;48.82
74087;SHT30;62445;48.406;-4.518;2023-05-29T14:35:29;25.32;48.73
74087;SHT30;62445;48.406;-4.518;2023-05-29T14:37:55;25.35;48.70
74087;SHT30;62445;48.406;-4.518;2023-05-29T14:40:21;25.37;48.60
74087;SHT30;62445;48.406;-4.518;2023-05-29T14:42:46;25.41;48.53
74087;SHT30;62445;48.406;-4.518;2023-05-29T14:45:12;25.45;48.35
74087;SHT30;62445;48.406;-4.518;2023-05-29T14:47:39;25.52;48.25
74087;SHT30;62445;48.406;-4.518;2023-05-29T14:50:05;25.55;48.13
74087;SHT30;62445;48.406;-4.518;2023-05-29T14:52:30;25.61;48.05
74087;SHT30;62445;48.406;-4.518;2023-05-29T14:54:56;25.66;47.94
74087;SHT30;62445;48.406;-4.518;2023-05-29T14:57:21;25.72;47.76
74087;SHT30;62445;48.406;-4.518;2023-05-29T14:59:47;25.79;47.62
74087;SHT30;62445;48.406;-4.518;2023-05-29T15:02:12;25.86;47.50
74087;SHT30;62445;48.406;-4.518;2023-05-29T15:04:37;25.92;47.33
74087;SHT30;62445;48.406;-4.518;2023-05-29T15:07:03;26.00;47.18
74087;SHT30;62445;48.406;-4.518;2023-05-29T15:09:29;26.10;46.96
74087;SHT30;62445;48.406;-4.518;2023-05-29T15:11:54;26.18;46.72
74087;SHT30;62445;48.406;-4.518;2023-05-29T15:14:20;26.27;46.49
74087;SHT30;62445;48.406;-4.518;2023-05-29T15:16:45;26.38;46.22
74087;SHT30;62445;48.406;-4.518;2023-05-29T15:19:11;26.52;45.94
74087;SHT30;62445;48.406;-4.518;2023-05-29T15:21:36;26.71;45.62
74087;SHT30;62445;48.406;-4.518;2023-05-29T15:24:02;27.05;44.93
74087;SHT30;62445;48.406;-4.518;2023-05-29T15:26:28;27.80;43.52
74087;SHT30;62445;48.406;-4.518;2023-05-29T15:28:53;28.68;41.80
74087;SHT30;62445;48.406;-4.518;2023-05-29T15:31:19;29.41;40.43
74087;SHT30;62445;48.406;-4.518;2023-05-29T15:33:46;30.06;39.25
74087;SHT30;62445;48.406;-4.518;2023-05-29T15:36:11;30.66;38.24
74087;SHT30;62445;48.406;-4.518;2023-05-29T15:38:37;31.20;37.31
74087;SHT30;62445;48.406;-4.518;2023-05-29T15:41:02;31.71;36.53
74087;SHT30;62445;48.406;-4.518;2023-05-29T15:43:29;32.16;35.75
74087;SHT30;62445;48.406;-4.518;2023-05-29T15:45:55;32.63;34.98
74087;SHT30;62445;48.406;-4.518;2023-05-29T15:48:21;33.07;34.43
74087;SHT30;62445;48.406;-4.518;2023-05-29T15:50:46;33.48;33.95